createdAt,value
2022-09-07T00:04:10.260Z,3.22
2022-09-07T00:09:11.792Z,2.60
2022-09-07T00:14:13.231Z,2.60
2022-09-07T00:19:14.705Z,2.25
2022-09-07T00:24:16.189Z,2.15
2022-09-07T00:29:17.582Z,2.00
2022-09-07T00:34:19.059Z,1.50
2022-09-07T00:39:20.547Z,2.10
2022-09-07T00:44:40.254Z,2.13
2022-09-07T00:54:46.026Z,1.80
2022-09-07T00:59:49.420Z,1.70
2022-09-07T01:04:53.351Z,1.50
2022-09-07T01:09:55.558Z,1.60
2022-09-07T01:14:56.982Z,1.50
2022-09-07T01:20:10.506Z,1.42
2022-09-07T01:25:29.949Z,1.38
2022-09-07T01:30:35.025Z,1.63
2022-09-07T01:35:55.014Z,1.65
2022-09-07T01:41:05.018Z,1.50
2022-09-07T01:46:08.778Z,1.75
2022-09-07T01:51:10.900Z,1.40
2022-09-07T01:56:21.143Z,1.40
2022-09-07T02:01:25.514Z,1.20
2022-09-07T02:06:33.678Z,1.60
2022-09-07T02:11:37.325Z,1.60
2022-09-07T02:16:57.766Z,1.30
2022-09-07T02:22:01.406Z,1.50
2022-09-07T02:27:06.226Z,1.48
2022-09-07T02:32:07.778Z,1.48
2022-09-07T02:37:09.979Z,1.15
2022-09-07T02:42:11.547Z,1.20
2022-09-07T02:47:16.055Z,1.20
2022-09-07T02:52:36.241Z,1.20
2022-09-07T02:57:51.048Z,1.48
2022-09-07T03:03:17.263Z,1.10
2022-09-07T03:08:24.195Z,1.20
2022-09-07T03:13:26.786Z,1.00
2022-09-07T03:18:28.510Z,1.05
2022-09-07T03:23:29.994Z,0.90
2022-09-07T03:28:31.529Z,1.30
2022-09-07T03:33:33.725Z,1.00
2022-09-07T03:38:35.236Z,1.42
2022-09-07T03:43:36.714Z,1.20
2022-09-07T03:48:39.455Z,1.33
2022-09-07T03:53:41.980Z,1.25
2022-09-07T03:58:43.984Z,1.20
2022-09-07T04:03:45.996Z,1.45
2022-09-07T04:08:47.848Z,1.30
2022-09-07T04:13:49.300Z,1.73
2022-09-07T04:18:51.542Z,1.40
2022-09-07T04:23:53.274Z,1.52
2022-09-07T04:28:55.009Z,1.30
2022-09-07T04:33:56.641Z,1.30
2022-09-07T04:39:02.328Z,1.95
2022-09-07T04:44:04.138Z,1.85
2022-09-07T04:49:07.261Z,2.30
2022-09-07T04:54:10.017Z,2.50
2022-09-07T04:59:11.474Z,2.25
2022-09-07T05:04:12.990Z,2.22
2022-09-07T05:09:14.699Z,2.83
2022-09-07T05:14:16.356Z,1.73
2022-09-07T05:19:17.865Z,1.70
2022-09-07T05:24:19.379Z,1.98
2022-09-07T05:34:42.427Z,1.70
2022-09-07T05:39:44.149Z,1.83
2022-09-07T05:44:46.107Z,1.65
2022-09-07T05:49:47.899Z,1.50
2022-09-07T05:54:49.904Z,1.60
2022-09-07T05:59:51.408Z,1.70
2022-09-07T06:04:52.807Z,1.75
2022-09-07T06:15:15.679Z,1.70
2022-09-07T06:20:17.189Z,1.60
2022-09-07T06:25:18.647Z,1.60
2022-09-07T06:30:20.971Z,1.80
2022-09-07T06:35:22.355Z,1.73
2022-09-07T06:40:23.858Z,1.80
2022-09-07T06:45:25.471Z,1.55
2022-09-07T06:50:27.854Z,1.90
2022-09-07T06:55:29.337Z,2.28
2022-09-07T07:00:30.846Z,1.52
2022-09-07T07:05:32.309Z,1.55
2022-09-07T07:10:36.882Z,1.60
2022-09-07T07:15:38.407Z,1.42
2022-09-07T07:20:40.803Z,1.60
2022-09-07T07:25:42.279Z,1.50
2022-09-07T07:30:43.736Z,1.60
2022-09-07T07:35:45.090Z,1.95
2022-09-07T07:46:14.904Z,1.30
2022-09-07T07:51:16.376Z,1.50
2022-09-07T07:56:18.234Z,1.60
2022-09-07T08:01:19.822Z,1.77
2022-09-07T08:06:22.611Z,1.67
2022-09-07T08:11:24.104Z,2.00
2022-09-07T08:16:25.600Z,1.88
2022-09-07T08:21:27.029Z,2.05
2022-09-07T08:26:28.424Z,1.92
2022-09-07T08:31:30.047Z,2.30
2022-09-07T08:36:31.970Z,2.00
2022-09-07T08:41:33.380Z,1.88
2022-09-07T08:46:44.246Z,2.00
2022-09-07T08:52:03.558Z,1.77
2022-09-07T08:57:20.861Z,2.17
2022-09-07T09:02:32.557Z,2.58
2022-09-07T09:07:36.757Z,2.08
2022-09-07T09:12:38.165Z,2.55
2022-09-07T09:17:42.393Z,2.47
2022-09-07T09:22:44.212Z,2.10
2022-09-07T09:27:45.994Z,2.72
2022-09-07T09:32:48.863Z,2.40
2022-09-07T09:37:50.305Z,2.38
2022-09-07T09:43:04.080Z,3.13
2022-09-07T09:48:10.129Z,2.60
2022-09-07T09:53:21.664Z,2.55
2022-09-07T10:03:56.063Z,3.13
2022-09-07T10:09:00.157Z,3.58
2022-09-07T10:14:01.668Z,2.80
2022-09-07T10:19:03.227Z,2.80
2022-09-07T10:24:04.588Z,3.58
2022-09-07T10:29:07.769Z,2.85
2022-09-07T10:34:26.264Z,3.28
2022-09-07T10:39:31.667Z,2.63
2022-09-07T10:44:44.478Z,2.47
2022-09-07T10:50:22.126Z,2.50
2022-09-07T10:55:34.110Z,2.90
2022-09-07T11:00:41.287Z,2.65
2022-09-07T11:05:51.250Z,2.92
2022-09-07T11:11:01.725Z,2.50
2022-09-07T11:16:06.656Z,3.15
2022-09-07T11:21:13.268Z,2.50
2022-09-07T11:26:19.072Z,3.30
2022-09-07T11:31:30.749Z,4.00
2022-09-07T11:36:36.323Z,3.72
2022-09-07T11:41:42.499Z,4.70
2022-09-07T11:46:45.856Z,4.30
2022-09-07T11:51:53.330Z,3.97
2022-09-07T11:56:58.149Z,4.45
2022-09-07T12:01:59.648Z,5.10
2022-09-07T12:07:16.397Z,4.20
2022-09-07T12:12:23.843Z,6.25
2022-09-07T12:17:31.414Z,5.05
2022-09-07T12:22:34.125Z,5.88
2022-09-07T12:27:36.621Z,5.80
2022-09-07T12:32:55.669Z,6.03
2022-09-07T12:38:24.526Z,5.55
2022-09-07T12:43:32.318Z,6.75
2022-09-07T12:48:57.095Z,5.20
2022-09-07T12:53:58.449Z,4.35
2022-09-07T12:59:17.308Z,4.15
2022-09-07T13:04:28.734Z,4.38
2022-09-07T13:09:30.202Z,4.20
2022-09-07T13:14:34.475Z,3.30
2022-09-07T13:19:51.461Z,3.10
2022-09-07T13:24:55.319Z,2.72
2022-09-07T13:30:03.040Z,2.60
2022-09-07T13:35:12.447Z,1.98
2022-09-07T13:40:16.720Z,2.40
2022-09-07T13:45:30.449Z,2.38
2022-09-07T13:50:31.851Z,2.35
2022-09-07T13:55:51.731Z,2.90
2022-09-07T14:00:54.616Z,1.90
2022-09-07T14:06:14.864Z,2.10
2022-09-07T14:11:21.250Z,1.92
2022-09-07T14:16:22.703Z,2.20
2022-09-07T14:21:24.229Z,2.30
2022-09-07T14:26:26.368Z,2.00
2022-09-07T14:31:28.702Z,2.10
2022-09-07T14:36:47.467Z,1.70
2022-09-07T14:41:49.162Z,1.55
2022-09-07T14:46:55.141Z,1.73
2022-09-07T14:51:58.432Z,1.85
2022-09-07T14:57:02.527Z,1.90
2022-09-07T15:02:19.657Z,1.55
2022-09-07T15:07:37.322Z,1.40
2022-09-07T15:12:41.622Z,1.50
2022-09-07T15:17:43.682Z,1.73
2022-09-07T15:22:45.922Z,1.80
2022-09-07T15:27:47.459Z,1.50
2022-09-07T15:32:49.483Z,1.75
2022-09-07T15:38:59.413Z,1.48
2022-09-07T15:43:20.329Z,1.60
2022-09-07T15:48:25.199Z,1.90
2022-09-07T15:58:52.060Z,1.70
2022-09-07T16:03:54.350Z,1.63
2022-09-07T16:08:55.938Z,1.90
2022-09-07T16:14:01.705Z,1.40
2022-09-07T16:19:07.372Z,2.00
2022-09-07T16:24:09.137Z,1.65
2022-09-07T16:29:10.545Z,2.30
2022-09-07T16:34:12.510Z,1.98
2022-09-07T16:39:15.288Z,1.67
2022-09-07T16:44:16.963Z,1.95
2022-09-07T16:49:19.611Z,1.70
2022-09-07T16:54:21.265Z,1.85
2022-09-07T16:59:26.767Z,1.70
2022-09-07T17:04:29.078Z,1.70
2022-09-07T17:09:30.572Z,1.70
2022-09-07T17:14:31.979Z,1.60
2022-09-07T17:19:33.487Z,1.80
2022-09-07T17:24:35.022Z,1.70
2022-09-07T17:29:37.801Z,1.90
2022-09-07T17:34:39.278Z,1.88
2022-09-07T17:39:40.748Z,2.30
2022-09-07T17:44:42.278Z,2.20
2022-09-07T17:49:43.788Z,2.40
2022-09-07T17:54:45.246Z,2.42
2022-09-07T18:05:08.266Z,2.63
2022-09-07T18:10:09.931Z,3.42
2022-09-07T18:15:11.359Z,3.10
2022-09-07T18:20:12.793Z,3.10
2022-09-07T18:25:14.534Z,3.63
2022-09-07T18:30:17.346Z,3.55
2022-09-07T18:35:18.782Z,4.40
2022-09-07T18:40:21.509Z,3.65
2022-09-07T18:45:30.454Z,4.97
2022-09-07T18:50:31.974Z,4.63
2022-09-07T18:55:33.417Z,4.30
2022-09-07T19:00:34.863Z,4.00
2022-09-07T19:05:52.846Z,4.13
2022-09-07T19:10:54.638Z,4.05
2022-09-07T19:16:02.640Z,4.60
2022-09-07T19:21:10.644Z,4.15
2022-09-07T19:26:14.916Z,4.10
2022-09-07T19:31:16.344Z,3.70
2022-09-07T19:36:17.858Z,3.58
2022-09-07T19:41:19.427Z,3.65
2022-09-07T19:46:24.837Z,3.33
2022-09-07T19:51:26.457Z,3.42
2022-09-07T19:56:27.852Z,3.15
2022-09-07T20:01:29.572Z,3.58
2022-09-07T20:06:32.851Z,3.22
2022-09-07T20:11:34.990Z,3.22
2022-09-07T20:16:38.534Z,3.30
2022-09-07T20:21:40.064Z,3.30
2022-09-07T20:26:41.497Z,3.38
2022-09-07T20:31:44.239Z,3.47
2022-09-07T20:36:48.907Z,3.60
2022-09-07T20:41:50.604Z,3.95
2022-09-07T20:46:52.219Z,4.35
2022-09-07T20:51:53.847Z,3.72
2022-09-07T20:56:55.309Z,3.78
2022-09-07T21:01:56.782Z,4.03
2022-09-07T21:06:58.321Z,4.50
2022-09-07T21:11:59.742Z,4.10
2022-09-07T21:17:01.460Z,3.95
2022-09-07T21:22:02.891Z,3.88
2022-09-07T21:27:04.341Z,4.30
2022-09-07T21:32:06.246Z,4.32
2022-09-07T21:37:07.681Z,3.35
2022-09-07T21:42:09.082Z,3.95
2022-09-07T21:47:10.584Z,3.00
2022-09-07T21:52:12.277Z,3.03
2022-09-07T21:57:13.874Z,3.08
2022-09-07T22:02:15.463Z,2.97
2022-09-07T22:07:16.930Z,3.13
2022-09-07T22:12:18.326Z,3.55
2022-09-07T22:17:19.786Z,4.25
2022-09-07T22:22:21.272Z,4.80
2022-09-07T22:27:22.877Z,4.65
2022-09-07T22:32:24.313Z,5.53
2022-09-07T22:37:26.006Z,6.03
2022-09-07T22:42:27.385Z,6.97
2022-09-07T22:47:28.818Z,7.60
2022-09-07T22:52:30.331Z,7.38
2022-09-07T22:57:31.788Z,8.68
2022-09-07T23:02:33.572Z,8.55
2022-09-07T23:07:34.988Z,8.25
2022-09-07T23:12:36.606Z,7.75
2022-09-07T23:17:38.033Z,8.45
2022-09-07T23:22:39.483Z,7.68
2022-09-07T23:27:40.988Z,7.50
2022-09-07T23:32:42.596Z,5.95
2022-09-07T23:37:44.198Z,5.07
2022-09-07T23:42:46.061Z,5.32
2022-09-07T23:47:47.496Z,5.03
2022-09-07T23:52:48.919Z,4.43
2022-09-07T23:57:50.475Z,3.72
